createdAt,value
2023-03-15T00:00:34.524Z,1.17
2023-03-15T00:06:28.891Z,2.00
2023-03-15T00:12:23.434Z,1.20
2023-03-15T00:18:17.258Z,1.30
2023-03-15T00:24:12.485Z,0.93
2023-03-15T00:30:06.270Z,1.30
2023-03-15T00:35:59.231Z,2.83
2023-03-15T00:41:57.241Z,1.70
2023-03-15T00:47:52.208Z,1.53
2023-03-15T00:53:48.715Z,1.93
2023-03-15T00:59:45.365Z,1.27
2023-03-15T01:05:38.725Z,1.70
2023-03-15T01:11:33.032Z,1.20
2023-03-15T01:17:27.847Z,1.50
2023-03-15T01:23:21.111Z,1.90
2023-03-15T01:29:14.872Z,1.60
2023-03-15T01:35:10.298Z,1.83
2023-03-15T01:41:03.846Z,1.87
2023-03-15T01:46:57.484Z,1.73
2023-03-15T01:52:52.146Z,2.23
2023-03-15T01:58:49.367Z,1.80
2023-03-15T02:04:47.659Z,2.33
2023-03-15T02:10:46.356Z,2.40
2023-03-15T02:16:40.904Z,2.30
2023-03-15T02:22:46.349Z,2.33
2023-03-15T02:28:42.064Z,2.13
2023-03-15T02:34:35.030Z,2.27
2023-03-15T02:40:30.833Z,2.30
2023-03-15T02:46:26.054Z,2.60
2023-03-15T02:52:19.897Z,2.60
2023-03-15T02:58:13.274Z,2.20
2023-03-15T03:04:08.139Z,2.63
2023-03-15T03:10:01.701Z,2.47
2023-03-15T03:16:01.252Z,2.60
2023-03-15T03:21:58.799Z,2.40
2023-03-15T03:27:51.838Z,2.90
2023-03-15T03:33:45.295Z,3.13
2023-03-15T03:39:40.228Z,2.63
2023-03-15T03:45:33.380Z,3.40
2023-03-15T03:51:27.314Z,3.43
2023-03-15T03:57:22.105Z,3.23
2023-03-15T04:03:15.848Z,3.10
2023-03-15T04:09:14.893Z,3.00
2023-03-15T04:15:13.008Z,3.17
2023-03-15T04:21:11.261Z,2.73
2023-03-15T04:27:07.591Z,2.67
2023-03-15T04:33:12.124Z,2.47
2023-03-15T04:39:28.246Z,2.70
2023-03-15T04:45:47.938Z,2.80
2023-03-15T04:52:01.410Z,2.17
2023-03-15T04:58:30.037Z,2.27
2023-03-15T05:04:42.202Z,3.50
2023-03-15T05:10:46.863Z,4.83
2023-03-15T05:17:04.397Z,6.27
2023-03-15T05:23:16.971Z,4.70
2023-03-15T05:29:21.808Z,5.67
2023-03-15T05:35:35.452Z,6.37
2023-03-15T05:41:40.322Z,7.17
2023-03-15T05:47:54.930Z,7.00
2023-03-15T05:53:59.622Z,8.53
2023-03-15T06:00:12.945Z,7.40
2023-03-15T06:06:10.412Z,6.97
2023-03-15T06:12:07.656Z,7.60
2023-03-15T06:18:02.359Z,7.50
2023-03-15T06:23:57.627Z,6.23
2023-03-15T06:29:51.435Z,6.27
2023-03-15T06:35:47.856Z,6.90
2023-03-15T06:41:42.786Z,8.70
2023-03-15T06:47:42.042Z,7.60
2023-03-15T06:53:36.095Z,7.73
2023-03-15T06:59:30.570Z,9.00
2023-03-15T07:05:24.720Z,7.77
2023-03-15T07:11:17.708Z,7.33
2023-03-15T07:17:12.179Z,7.27
2023-03-15T07:23:05.769Z,7.77
2023-03-15T07:28:58.744Z,7.20
2023-03-15T07:34:55.543Z,7.90
2023-03-15T07:40:48.581Z,6.33
2023-03-15T07:46:41.572Z,6.20
2023-03-15T07:52:35.889Z,5.33
2023-03-15T07:58:29.130Z,3.83
2023-03-15T08:04:22.411Z,3.10
2023-03-15T08:10:18.847Z,2.20
2023-03-15T08:16:12.406Z,2.20
2023-03-15T08:22:06.423Z,1.53
2023-03-15T08:28:01.550Z,1.70
2023-03-15T08:33:54.970Z,1.40
2023-03-15T08:39:48.359Z,2.30
2023-03-15T08:45:59.494Z,2.33
2023-03-15T08:51:53.870Z,1.70
2023-03-15T08:57:47.842Z,2.00
2023-03-15T09:03:43.078Z,1.97
2023-03-15T09:09:36.616Z,2.00
2023-03-15T09:15:29.585Z,1.60
2023-03-15T09:21:25.195Z,2.40
2023-03-15T09:27:18.302Z,1.27
2023-03-15T09:33:14.532Z,2.00
2023-03-15T09:39:09.847Z,1.97
2023-03-15T09:45:08.736Z,1.13
2023-03-15T09:51:05.581Z,1.20
2023-03-15T09:57:03.632Z,1.00
2023-03-15T10:03:01.962Z,0.90
2023-03-15T10:08:58.434Z,0.90
2023-03-15T10:15:19.092Z,0.93
2023-03-15T10:21:16.529Z,1.00
2023-03-15T10:27:18.228Z,1.50
2023-03-15T10:33:18.234Z,1.20
2023-03-15T10:39:13.315Z,1.30
2023-03-15T10:45:19.500Z,1.40
2023-03-15T10:51:22.562Z,2.23
2023-03-15T10:57:19.153Z,1.80
2023-03-15T11:03:19.793Z,1.87
2023-03-15T11:09:16.377Z,1.50
2023-03-15T11:15:15.433Z,1.60
2023-03-15T11:21:11.873Z,1.20
2023-03-15T11:27:14.983Z,1.60
2023-03-15T11:33:10.189Z,0.90
2023-03-15T11:39:05.132Z,0.80
2023-03-15T11:45:04.318Z,0.90
2023-03-15T11:50:59.172Z,1.27
2023-03-15T11:56:55.445Z,1.30
2023-03-15T12:02:55.421Z,1.20
2023-03-15T12:08:51.547Z,1.00
2023-03-15T12:14:46.025Z,0.90
2023-03-15T12:20:42.817Z,1.30
2023-03-15T12:26:42.414Z,1.07
2023-03-15T12:32:47.977Z,1.17
2023-03-15T12:38:59.697Z,0.87
2023-03-15T12:44:52.842Z,1.00
2023-03-15T12:50:53.067Z,1.27
2023-03-15T12:56:51.852Z,1.27
2023-03-15T13:02:47.848Z,1.53
2023-03-15T13:08:49.430Z,1.30
2023-03-15T13:14:50.893Z,1.30
2023-03-15T13:20:52.184Z,1.13
2023-03-15T13:26:56.005Z,1.73
2023-03-15T13:32:50.795Z,1.27
2023-03-15T13:38:45.632Z,1.30
2023-03-15T13:44:39.034Z,1.43
2023-03-15T13:50:33.543Z,1.20
2023-03-15T13:56:37.452Z,1.33
2023-03-15T14:02:38.930Z,1.57
2023-03-15T14:08:36.335Z,1.43
2023-03-15T14:14:31.143Z,1.90
2023-03-15T14:20:30.190Z,2.10
2023-03-15T14:26:28.985Z,2.07
2023-03-15T14:32:29.214Z,2.10
2023-03-15T14:38:24.720Z,1.37
2023-03-15T14:44:19.348Z,1.97
2023-03-15T14:50:16.513Z,1.60
2023-03-15T14:56:12.657Z,1.60
2023-03-15T15:02:07.692Z,1.70
2023-03-15T15:08:05.503Z,1.43
2023-03-15T15:13:58.647Z,1.33
2023-03-15T15:19:53.570Z,1.60
2023-03-15T15:25:47.992Z,1.10
2023-03-15T15:31:41.597Z,1.60
2023-03-15T15:37:36.349Z,1.27
2023-03-15T15:43:31.294Z,1.40
2023-03-15T15:49:26.445Z,1.50
2023-03-15T15:55:24.185Z,1.70
2023-03-15T16:01:18.384Z,1.70
2023-03-15T16:07:11.632Z,1.63
2023-03-15T16:13:06.630Z,1.70
2023-03-15T16:19:00.045Z,1.30
2023-03-15T16:24:55.868Z,1.37
2023-03-15T16:30:51.096Z,1.33
2023-03-15T16:36:49.158Z,1.57
2023-03-15T16:42:42.570Z,1.53
2023-03-15T16:48:36.972Z,1.80
2023-03-15T16:54:40.939Z,2.00
2023-03-15T17:00:35.072Z,1.43
2023-03-15T17:06:31.307Z,2.00
2023-03-15T17:12:27.923Z,1.83
2023-03-15T17:18:27.226Z,1.20
2023-03-15T17:24:22.030Z,2.13
2023-03-15T17:30:17.440Z,1.27
2023-03-15T17:36:12.836Z,1.63
2023-03-15T17:42:07.516Z,1.60
2023-03-15T17:48:00.890Z,2.00
2023-03-15T17:53:54.602Z,1.70
2023-03-15T17:59:49.347Z,1.63
2023-03-15T18:05:42.988Z,2.43
2023-03-15T18:11:37.497Z,2.90
2023-03-15T18:17:32.091Z,2.23
2023-03-15T18:23:25.086Z,1.93
2023-03-15T18:29:18.525Z,2.43
2023-03-15T18:35:17.162Z,3.00
2023-03-15T18:41:18.913Z,2.23
2023-03-15T18:47:13.767Z,2.37
2023-03-15T18:53:08.624Z,2.00
2023-03-15T18:59:02.098Z,2.33
2023-03-15T19:04:58.390Z,2.07
2023-03-15T19:10:58.719Z,3.10
2023-03-15T19:16:53.568Z,2.17
2023-03-15T19:22:46.587Z,2.50
2023-03-15T19:28:41.513Z,2.37
2023-03-15T19:34:34.517Z,2.33
2023-03-15T19:40:27.891Z,2.90
2023-03-15T19:46:22.266Z,2.80
2023-03-15T19:52:15.968Z,3.23
2023-03-15T19:58:08.948Z,3.10
2023-03-15T20:04:03.279Z,2.30
2023-03-15T20:09:56.743Z,3.90
2023-03-15T20:15:50.168Z,2.97
2023-03-15T20:21:45.213Z,2.47
2023-03-15T20:27:38.746Z,2.27
2023-03-15T20:33:31.703Z,2.97
2023-03-15T20:39:26.564Z,2.30
2023-03-15T20:45:20.090Z,2.60
2023-03-15T20:51:13.477Z,2.70
2023-03-15T20:57:07.865Z,2.90
2023-03-15T21:03:01.768Z,2.50
2023-03-15T21:08:55.166Z,2.40
2023-03-15T21:14:49.974Z,3.40
2023-03-15T21:20:43.563Z,3.23
2023-03-15T21:26:36.768Z,3.77
2023-03-15T21:32:31.228Z,3.33
2023-03-15T21:38:24.746Z,3.80
2023-03-15T21:44:17.968Z,2.70
2023-03-15T21:50:12.893Z,2.53
2023-03-15T21:56:06.257Z,2.47
2023-03-15T22:01:59.198Z,4.37
2023-03-15T22:07:53.502Z,2.87
2023-03-15T22:13:46.482Z,2.70
2023-03-15T22:19:39.464Z,2.40
2023-03-15T22:25:34.145Z,2.50
2023-03-15T22:31:27.514Z,3.00
2023-03-15T22:37:21.016Z,3.43
2023-03-15T22:43:15.973Z,2.67
2023-03-15T22:49:09.380Z,4.03
2023-03-15T22:55:02.741Z,2.87
2023-03-15T23:00:57.481Z,2.57
2023-03-15T23:06:50.904Z,2.63
2023-03-15T23:12:44.729Z,2.30
2023-03-15T23:18:39.515Z,3.37
2023-03-15T23:24:34.485Z,2.83
2023-03-15T23:30:35.185Z,3.23
2023-03-15T23:36:30.588Z,2.00
2023-03-15T23:42:26.157Z,2.70
2023-03-15T23:48:19.097Z,2.90
2023-03-15T23:54:13.412Z,2.90
